Time;durP1;ratioP1;P1;durP2;ratioP2;P2;SDS_P1;SDS_P2;PMS_P1;PMS_P2;Temp;Humidity;BMP_temperature;BMP_pressure;BME280_temperature;BME280_humidity;BME280_pressure;Samples;Min_cycle;Max_cycle;Signal;HPM_P1;HPM_P2
2022/07/05 00:00:06;;;;;;;3.60;1.98;;;;;;;22.80;41.69;101478.44;4975291;28;98797;-70
2022/07/05 00:02:33;;;;;;;5.28;1.73;;;;;;;22.84;41.55;101477.25;4977403;28;97303;-70
2022/07/05 00:04:59;;;;;;;7.82;1.70;;;;;;;22.89;41.25;101477.75;4975185;28;97297;-74
2022/07/05 00:07:25;;;;;;;6.78;2.53;;;;;;;22.83;41.41;101480.91;4973638;28;97692;-73
2022/07/05 00:09:54;;;;;;;5.40;2.10;;;;;;;22.73;42.05;101475.31;4974296;28;98913;-73
2022/07/05 00:12:24;;;;;;;5.35;1.98;;;;;;;22.41;43.18;101477.69;4970359;28;96851;-73
2022/07/05 00:14:51;;;;;;;6.75;2.33;;;;;;;22.78;42.12;101475.84;4977570;28;97196;-73
2022/07/05 00:17:20;;;;;;;8.82;2.15;;;;;;;22.87;42.10;101485.06;4970576;28;99981;-73
2022/07/05 00:19:47;;;;;;;6.13;2.10;;;;;;;22.88;41.96;101486.81;4974515;28;98927;-71
2022/07/05 00:22:13;;;;;;;6.47;1.83;;;;;;;22.88;41.95;101493.06;4972534;28;97356;-70
2022/07/05 00:24:39;;;;;;;4.72;2.00;;;;;;;23.03;41.43;101485.66;4978089;28;97006;-70
2022/07/05 00:27:06;;;;;;;10.68;2.40;;;;;;;23.07;41.45;101484.44;4962644;28;99370;-70
2022/07/05 00:29:34;;;;;;;7.90;1.80;;;;;;;23.01;41.78;101492.97;4973287;28;99111;-70
2022/07/05 00:32:00;;;;;;;3.90;1.92;;;;;;;23.10;41.59;101486.91;4985220;28;98435;-70
2022/07/05 00:34:26;;;;;;;3.88;1.80;;;;;;;22.95;42.20;101490.75;4977359;28;96878;-70
2022/07/05 00:36:53;;;;;;;3.65;1.50;;;;;;;22.85;42.10;101485.19;4973232;28;98871;-70
2022/07/05 00:39:19;;;;;;;4.00;1.45;;;;;;;22.95;41.94;101491.63;4977669;28;98879;-70
2022/07/05 00:41:46;;;;;;;3.38;1.58;;;;;;;22.74;42.53;101495.91;4978088;28;96936;-70
2022/07/05 00:44:13;;;;;;;6.10;1.50;;;;;;;22.60;42.91;101486.13;4976025;28;97497;-70
2022/07/05 00:46:44;;;;;;;4.25;1.60;;;;;;;22.88;42.57;101492.19;4973648;28;99012;-70
2022/07/05 00:49:11;;;;;;;3.78;1.50;;;;;;;22.83;42.78;101492.53;4972834;28;99565;-70
2022/07/05 00:51:39;;;;;;;2.70;1.58;;;;;;;22.78;43.05;101496.53;4975374;28;96879;-69
2022/07/05 00:54:08;;;;;;;6.30;2.42;;;;;;;22.79;43.42;101501.81;4978068;28;96814;-70
2022/07/05 00:56:34;;;;;;;5.38;1.83;;;;;;;23.03;42.95;101501.81;4977827;28;99655;-70
2022/07/05 00:59:01;;;;;;;7.00;1.52;;;;;;;23.08;42.57;101507.72;4974451;28;99039;-70
2022/07/05 01:01:28;;;;;;;4.78;1.70;;;;;;;23.03;41.86;101513.47;4978090;28;96825;-70
2022/07/05 01:03:57;;;;;;;4.90;1.60;;;;;;;23.12;41.51;101508.34;4973240;28;97957;-70
2022/07/05 01:06:24;;;;;;;5.95;1.20;;;;;;;23.27;41.52;101512.56;4971158;28;98913;-70
2022/07/05 01:08:50;;;;;;;2.63;1.38;;;;;;;23.11;42.20;101523.66;4975455;28;99138;-70
2022/07/05 01:11:17;;;;;;;5.78;1.40;;;;;;;23.04;42.47;101517.00;4980089;28;97240;-73
2022/07/05 01:13:43;;;;;;;4.47;1.58;;;;;;;22.90;42.89;101517.19;4981122;28;97326;-74
2022/07/05 01:16:10;;;;;;;1.63;1.20;;;;;;;23.19;42.22;101521.22;4968549;28;99431;-73
2022/07/05 01:18:37;;;;;;;3.35;1.20;;;;;;;23.28;41.80;101520.53;4974199;28;99336;-70
2022/07/05 01:21:05;;;;;;;4.93;1.40;;;;;;;23.11;41.37;101514.69;4980018;28;97317;-71
2022/07/05 01:23:33;;;;;;;4.43;1.70;;;;;;;23.23;40.29;101514.66;4976440;28;97068;-70
2022/07/05 01:26:02;;;;;;;2.75;1.40;;;;;;;23.32;40.38;101513.06;4972457;28;99412;-71
2022/07/05 01:28:28;;;;;;;5.80;1.80;;;;;;;23.37;40.07;101510.88;4970598;28;98765;-70
2022/07/05 01:30:55;;;;;;;2.47;1.50;;;;;;;23.48;39.41;101510.09;4972245;28;96985;-70
2022/07/05 01:33:28;;;;;;;3.53;1.30;;;;;;;23.43;39.46;101513.94;4980931;28;96851;-72
2022/07/05 01:35:54;;;;;;;3.15;1.50;;;;;;;23.42;39.14;101512.25;4972801;28;97801;-73
2022/07/05 01:38:20;;;;;;;6.65;2.03;;;;;;;23.36;38.99;101507.34;4976243;28;98838;-73
2022/07/05 01:40:51;;;;;;;6.47;1.75;;;;;;;23.48;38.92;101512.78;4977802;28;97578;-73
2022/07/05 01:43:18;;;;;;;3.88;1.33;;;;;;;23.55;39.08;101514.03;4975105;28;98641;-73
2022/07/05 01:45:46;;;;;;;2.30;1.00;;;;;;;23.51;38.83;101513.41;4973250;28;99540;-73
2022/07/05 01:48:14;;;;;;;2.72;1.70;;;;;;;23.54;38.79;101510.47;4973865;28;98860;-73
2022/07/05 01:50:45;;;;;;;5.32;3.33;;;;;;;23.40;39.18;101514.19;4978279;28;96729;-73
2022/07/05 01:53:17;;;;;;;3.05;1.30;;;;;;;23.14;39.29;101509.94;4981883;28;96793;-73
2022/07/05 01:55:43;;;;;;;4.25;1.23;;;;;;;23.31;39.43;101505.94;4973891;28;98964;-73
2022/07/05 01:58:12;;;;;;;1.80;1.40;;;;;;;23.38;39.29;101508.06;4979393;28;98903;-73
2022/07/05 02:00:45;;;;;;;4.38;1.73;;;;;;;23.40;39.04;101510.66;4973483;28;97379;-72
2022/07/05 02:06:08;;;;;;;4.45;1.25;;;;;;;23.29;39.19;101507.94;4967687;28;97330;-72
2022/07/05 02:08:35;;;;;;;6.50;1.50;;;;;;;23.46;38.99;101518.25;4978052;28;98860;-72
2022/07/05 02:11:01;;;;;;;3.08;1.15;;;;;;;23.31;39.10;101509.50;4972102;28;97269;-71
2022/07/05 02:13:29;;;;;;;1.75;1.33;;;;;;;23.20;39.71;101509.47;4976745;28;96914;-71
2022/07/05 02:15:55;;;;;;;5.45;1.58;;;;;;;23.21;39.28;101516.59;4969798;28;98989;-71
2022/07/05 02:18:22;;;;;;;4.13;1.42;;;;;;;23.16;39.64;101513.41;4978007;28;99057;-73
2022/07/05 02:20:48;;;;;;;3.10;1.30;;;;;;;23.28;39.38;101504.38;4973662;28;97146;-71
2022/07/05 02:23:14;;;;;;;3.88;1.27;;;;;;;23.16;39.45;101507.13;4978618;28;96841;-72
2022/07/05 02:25:41;;;;;;;2.28;1.40;;;;;;;22.93;39.81;101512.41;4971586;28;99497;-70
2022/07/05 02:28:07;;;;;;;5.90;1.48;;;;;;;22.88;39.94;101513.75;4973906;28;98906;-69
2022/07/05 02:30:35;;;;;;;1.88;1.40;;;;;;;22.87;39.79;101506.63;4971418;28;97256;-71
2022/07/05 02:33:01;;;;;;;1.85;1.20;;;;;;;22.79;40.09;101517.13;4980161;28;96774;-70
2022/07/05 02:35:28;;;;;;;4.70;1.30;;;;;;;22.56;40.55;101522.34;4966210;28;99012;-70
2022/07/05 02:37:54;;;;;;;2.50;1.27;;;;;;;22.67;40.29;101517.03;4977747;28;99069;-69
2022/07/05 02:40:20;;;;;;;3.13;1.30;;;;;;;22.38;40.87;101521.00;4979190;28;97396;-70
2022/07/05 02:42:47;;;;;;;2.72;1.20;;;;;;;22.47;40.98;101520.31;4977251;28;98263;-70
2022/07/05 02:45:13;;;;;;;4.45;1.67;;;;;;;22.61;40.77;101519.31;4966269;28;99263;-70
2022/07/05 02:47:41;;;;;;;2.50;1.33;;;;;;;22.44;41.04;101520.56;4974749;28;101474;-70
2022/07/05 02:50:09;;;;;;;1.90;1.20;;;;;;;22.79;40.27;101520.66;4977283;28;98038;-70
2022/07/05 02:52:36;;;;;;;2.30;1.20;;;;;;;23.01;39.94;101523.50;4976807;28;97135;-70
2022/07/05 02:55:03;;;;;;;1.08;0.98;;;;;;;22.93;40.06;101525.03;4975803;28;99748;-70
2022/07/05 02:57:30;;;;;;;3.90;1.40;;;;;;;22.83;40.13;101526.72;4973208;28;99912;-70
2022/07/05 02:59:57;;;;;;;2.63;1.42;;;;;;;23.02;39.97;101535.13;4970564;28;97674;-70
2022/07/05 03:02:24;;;;;;;1.75;1.20;;;;;;;23.14;39.75;101534.22;4970589;28;97522;-70
2022/07/05 03:04:51;;;;;;;4.72;1.60;;;;;;;22.94;40.39;101533.00;4976557;28;99377;-70
2022/07/05 03:07:18;;;;;;;2.00;1.00;;;;;;;22.94;40.50;101533.00;4975719;28;99060;-70
2022/07/05 03:09:44;;;;;;;2.00;1.40;;;;;;;22.92;40.45;101532.25;4971092;28;96858;-71
2022/07/05 03:12:10;;;;;;;2.60;1.15;;;;;;;22.75;40.86;101535.34;4974533;28;97414;-69
2022/07/05 03:14:37;;;;;;;3.83;1.10;;;;;;;22.80;40.85;101537.69;4968639;28;99025;-71
2022/07/05 03:17:04;;;;;;;5.18;1.40;;;;;;;22.79;41.14;101539.53;4973051;28;99484;-70
2022/07/05 03:19:30;;;;;;;2.55;1.23;;;;;;;22.85;41.08;101543.59;4980217;28;96712;-70
2022/07/05 03:21:58;;;;;;;2.25;0.95;;;;;;;22.57;41.65;101542.94;4972324;28;96871;-70
2022/07/05 03:24:24;;;;;;;3.72;1.40;;;;;;;22.96;41.05;101546.38;4972939;28;100611;-70
2022/07/05 03:26:50;;;;;;;2.10;1.27;;;;;;;22.87;41.02;101539.84;4971125;28;99083;-70
2022/07/05 03:29:17;;;;;;;4.28;1.40;;;;;;;22.46;42.11;101548.22;4969686;28;97015;-70
2022/07/05 03:31:43;;;;;;;5.88;1.50;;;;;;;22.64;41.88;101543.34;4972885;28;97053;-71
2022/07/05 03:34:09;;;;;;;3.72;1.45;;;;;;;22.70;41.57;101542.03;4973502;28;99096;-70
2022/07/05 03:36:36;;;;;;;2.17;1.50;;;;;;;22.56;42.12;101549.28;4961618;28;98864;-70
2022/07/05 03:39:04;;;;;;;3.90;1.58;;;;;;;22.60;42.01;101558.00;4971595;28;96710;-70
2022/07/05 03:41:30;;;;;;;6.80;1.83;;;;;;;22.58;42.09;101558.09;4970853;28;96800;-71
2022/07/05 03:43:57;;;;;;;5.03;1.50;;;;;;;22.39;42.34;101551.47;4976532;28;97734;-70
2022/07/05 03:46:23;;;;;;;3.08;1.80;;;;;;;22.30;42.66;101561.09;4970744;28;98963;-70
2022/07/05 03:48:50;;;;;;;3.20;1.70;;;;;;;22.50;42.26;101557.81;4982306;28;96811;-70
2022/07/05 03:51:16;;;;;;;9.55;2.05;;;;;;;22.55;41.92;101563.72;4975059;28;97095;-69
2022/07/05 03:53:42;;;;;;;4.50;2.17;;;;;;;22.70;41.78;101569.84;4981953;28;99296;-69
2022/07/05 03:56:10;;;;;;;4.22;1.23;;;;;;;22.63;41.95;101569.41;4966838;28;99228;-70
2022/07/05 03:58:36;;;;;;;4.50;1.45;;;;;;;22.67;41.65;101565.53;4975466;28;97008;-71
2022/07/05 04:01:03;;;;;;;4.47;2.03;;;;;;;22.74;41.62;101565.09;4977753;28;97026;-70
2022/07/05 04:03:29;;;;;;;2.60;1.40;;;;;;;22.84;41.39;101569.69;4980661;28;99034;-72
2022/07/05 04:05:55;;;;;;;5.85;1.75;;;;;;;22.71;41.68;101570.69;4976263;28;98818;-70
2022/07/05 04:08:22;;;;;;;3.50;1.50;;;;;;;22.50;42.34;101573.13;4977280;28;96831;-70
2022/07/05 04:10:48;;;;;;;3.17;1.45;;;;;;;22.66;42.03;101573.69;4969996;28;97924;-70
2022/07/05 04:13:16;;;;;;;3.05;1.40;;;;;;;22.82;41.93;101568.97;4970478;28;99389;-70
2022/07/05 04:15:43;;;;;;;7.35;1.33;;;;;;;23.10;41.39;101572.31;4968843;28;98937;-70
2022/07/05 04:18:09;;;;;;;4.68;1.60;;;;;;;23.02;41.62;101564.78;4975364;28;96938;-70
2022/07/05 04:20:35;;;;;;;6.05;1.35;;;;;;;23.39;40.85;101577.22;4975287;28;96925;-69
2022/07/05 04:23:02;;;;;;;2.45;1.38;;;;;;;23.55;40.37;101571.53;4973284;28;98778;-70
2022/07/05 04:25:28;;;;;;;5.00;1.20;;;;;;;23.39;40.73;101585.28;4968856;28;99109;-70
2022/07/05 04:27:56;;;;;;;3.95;1.50;;;;;;;23.51;40.71;101582.66;4972772;28;96766;-70
2022/07/05 04:30:25;;;;;;;7.32;1.50;;;;;;;23.81;40.07;101586.56;4971853;28;97097;-70
2022/07/05 04:32:51;;;;;;;1.98;1.10;;;;;;;23.76;39.96;101590.63;4976814;28;99307;-69
2022/07/05 04:35:18;;;;;;;2.78;1.40;;;;;;;23.96;39.59;101581.78;4968113;28;99195;-69
2022/07/05 04:37:45;;;;;;;4.22;1.70;;;;;;;23.92;39.54;101591.13;4973446;28;97022;-72
2022/07/05 04:40:12;;;;;;;5.55;1.40;;;;;;;24.07;38.94;101584.53;4969268;28;96897;-70
2022/07/05 04:42:39;;;;;;;2.72;1.30;;;;;;;24.08;38.81;101596.19;4968421;28;99068;-70
2022/07/05 04:45:07;;;;;;;2.50;1.38;;;;;;;24.11;39.16;101594.09;4973782;28;99193;-70
2022/07/05 04:47:34;;;;;;;3.55;1.83;;;;;;;24.11;38.63;101598.63;4968352;28;97861;-70
2022/07/05 04:50:02;;;;;;;5.55;1.50;;;;;;;24.18;39.09;101600.75;4976082;28;97262;-70
2022/07/05 04:52:28;;;;;;;5.22;1.58;;;;;;;24.38;38.76;101606.44;4972961;28;99254;-70
2022/07/05 04:54:55;;;;;;;3.47;1.45;;;;;;;24.59;37.91;101610.13;4977653;28;98854;-70
2022/07/05 04:57:21;;;;;;;3.05;1.40;;;;;;;24.33;38.29;101614.03;4970615;28;96909;-70
2022/07/05 04:59:48;;;;;;;3.35;1.60;;;;;;;24.40;38.23;101609.88;4969202;28;96810;-70
2022/07/05 05:02:14;;;;;;;3.72;1.63;;;;;;;24.79;38.02;101622.88;4970347;28;98323;-70
2022/07/05 05:04:42;;;;;;;5.80;1.27;;;;;;;25.14;37.24;101622.69;4969126;28;98173;-71
2022/07/05 05:07:09;;;;;;;6.25;1.30;;;;;;;26.19;35.30;101632.66;4972482;28;97004;-70
2022/07/05 05:09:36;;;;;;;4.22;1.27;;;;;;;27.09;33.52;101628.25;4975146;28;97079;-71
2022/07/05 05:12:02;;;;;;;6.47;1.55;;;;;;;28.22;31.24;101634.84;4969579;28;99026;-71
2022/07/05 05:14:29;;;;;;;4.35;1.60;;;;;;;28.77;30.25;101633.09;4975021;28;98936;-71
2022/07/05 05:16:55;;;;;;;6.35;1.00;;;;;;;28.19;30.78;101624.28;4974204;28;97206;-72
2022/07/05 05:19:21;;;;;;;1.48;1.30;;;;;;;27.71;31.83;101636.03;4975615;28;97088;-70
2022/07/05 05:21:49;;;;;;;2.80;1.08;;;;;;;28.39;30.33;101633.22;4969421;28;98642;-70
2022/07/05 05:24:15;;;;;;;2.03;1.00;;;;;;;27.59;31.40;101637.19;4966858;28;99514;-70
2022/07/05 05:26:42;;;;;;;2.65;1.35;;;;;;;27.22;32.10;101638.84;4970415;28;98789;-71
2022/07/05 05:29:08;;;;;;;1.98;0.95;;;;;;;27.23;32.03;101646.84;4970671;28;97035;-71
2022/07/05 05:31:35;;;;;;;2.22;0.98;;;;;;;26.63;32.06;101639.66;4976198;28;99011;-70
2022/07/05 05:34:01;;;;;;;5.25;1.02;;;;;;;26.62;32.05;101642.50;4976436;28;99770;-71
2022/07/05 05:36:28;;;;;;;2.78;1.10;;;;;;;26.68;31.73;101634.66;4974433;28;97785;-71
2022/07/05 05:38:56;;;;;;;2.28;1.00;;;;;;;26.64;31.73;101645.94;4977069;28;97570;-71
2022/07/05 05:41:22;;;;;;;9.18;1.80;;;;;;;26.47;32.18;101642.84;4975133;28;98277;-69
2022/07/05 05:43:48;;;;;;;2.38;1.00;;;;;;;26.34;32.10;101650.34;4975143;28;99738;-70
2022/07/05 05:46:15;;;;;;;2.33;1.10;;;;;;;26.32;32.41;101649.59;4973180;28;96725;-70
2022/07/05 05:48:41;;;;;;;2.70;1.10;;;;;;;26.09;32.39;101648.03;4982418;28;97263;-70
2022/07/05 05:51:08;;;;;;;2.35;0.93;;;;;;;26.32;31.68;101646.06;4975664;28;100172;-70
2022/07/05 05:53:34;;;;;;;2.33;0.90;;;;;;;26.34;31.22;101644.91;4982301;28;98799;-71
2022/07/05 05:56:02;;;;;;;3.75;1.00;;;;;;;26.22;31.68;101650.53;4969216;28;97090;-70
2022/07/05 05:58:28;;;;;;;3.63;1.15;;;;;;;26.43;31.52;101651.41;4972202;28;99068;-71
2022/07/05 06:00:54;;;;;;;8.55;1.27;;;;;;;26.51;31.36;101659.72;4971587;28;101120;-70
2022/07/05 06:03:22;;;;;;;3.72;0.82;;;;;;;26.71;31.12;101657.94;4971677;28;99198;-70
2022/07/05 06:05:49;;;;;;;4.75;1.13;;;;;;;26.87;30.61;101655.56;4970603;28;97125;-71
2022/07/05 06:08:16;;;;;;;5.82;1.05;;;;;;;26.69;30.38;101660.78;4974933;28;97126;-70
2022/07/05 06:10:42;;;;;;;6.97;0.90;;;;;;;26.42;30.34;101668.63;4971740;28;99351;-71
2022/07/05 06:13:12;;;;;;;4.82;0.90;;;;;;;25.68;31.18;101670.50;4973263;28;97760;-70
2022/07/05 06:15:42;;;;;;;2.40;1.05;;;;;;;26.13;31.03;101671.13;4969754;28;97197;-71
2022/07/05 06:18:09;;;;;;;6.93;1.10;;;;;;;26.42;30.60;101674.91;4970368;28;97119;-70
2022/07/05 06:20:38;;;;;;;6.13;0.93;;;;;;;26.20;30.63;101672.31;4972038;28;99087;-70
2022/07/05 06:23:06;;;;;;;5.78;2.22;;;;;;;25.83;31.19;101680.03;4971433;28;98871;-69
2022/07/05 06:25:33;;;;;;;2.40;1.00;;;;;;;26.11;31.07;101684.84;4974321;28;98501;-71
2022/07/05 06:28:01;;;;;;;5.82;1.58;;;;;;;25.77;31.55;101684.13;4973215;28;97008;-69
2022/07/05 06:30:31;;;;;;;4.38;0.80;;;;;;;26.18;30.89;101690.56;4972197;28;99398;-73
2022/07/05 06:32:58;;;;;;;4.18;0.93;;;;;;;26.40;30.94;101685.03;4972624;28;98878;-70
2022/07/05 06:35:25;;;;;;;1.67;1.10;;;;;;;26.16;31.05;101692.56;4970252;28;97391;-70
2022/07/05 06:37:54;;;;;;;4.80;3.15;;;;;;;25.93;31.23;101685.56;4971254;28;97266;-69
2022/07/05 06:40:22;;;;;;;7.43;1.50;;;;;;;26.08;31.64;101689.63;4971167;28;99099;-70
2022/07/05 06:42:49;;;;;;;2.90;0.80;;;;;;;26.22;31.25;101686.59;4969025;28;98890;-69
2022/07/05 06:45:15;;;;;;;3.10;1.10;;;;;;;26.49;31.08;101692.38;4970618;28;97168;-68
2022/07/05 06:47:43;;;;;;;4.43;0.98;;;;;;;27.01;30.74;101685.06;4970248;28;98088;-69
2022/07/05 06:50:11;;;;;;;7.78;1.05;;;;;;;27.37;29.75;101692.56;4967861;28;98922;-70
2022/07/05 06:52:39;;;;;;;9.77;1.25;;;;;;;27.11;30.07;101685.91;4969172;28;98733;-70
2022/07/05 06:55:06;;;;;;;6.47;1.73;;;;;;;27.30;30.23;101694.13;4969057;28;96871;-69
2022/07/05 06:57:32;;;;;;;2.85;1.23;;;;;;;27.13;30.25;101683.94;4969613;28;98098;-70
2022/07/05 07:00:00;;;;;;;7.13;1.55;;;;;;;27.14;30.38;101688.38;4969206;28;98885;-70
2022/07/05 07:02:26;;;;;;;4.57;1.98;;;;;;;27.20;30.25;101692.38;4969061;28;99152;-70
2022/07/05 07:04:54;;;;;;;2.97;1.20;;;;;;;27.51;29.73;101698.56;4968794;28;97313;-70
2022/07/05 07:10:04;;;;;;;3.90;1.13;;;;;;;27.55;29.79;101700.91;4929812;28;98436;-70
2022/07/05 07:12:31;;;;;;;6.15;1.17;;;;;;;27.43;29.74;101701.16;4969726;28;97583;-70
2022/07/05 07:14:58;;;;;;;9.32;2.50;;;;;;;27.56;29.54;101693.63;4969110;28;97600;-69
2022/07/05 07:17:24;;;;;;;7.38;2.20;;;;;;;27.54;29.45;101693.78;4967141;28;97924;-70
2022/07/05 07:19:51;;;;;;;3.25;0.88;;;;;;;27.22;29.39;101693.97;4968540;28;98024;-70
2022/07/05 07:22:19;;;;;;;5.28;1.45;;;;;;;26.26;30.93;101701.63;4970132;28;98106;-70
2022/07/05 07:24:46;;;;;;;8.35;0.90;;;;;;;27.10;29.89;101697.81;4968347;28;97349;-70
2022/07/05 07:27:12;;;;;;;2.05;0.82;;;;;;;26.40;30.15;101701.28;4967058;28;96821;-70
2022/07/05 07:29:40;;;;;;;2.17;0.88;;;;;;;25.86;30.78;101693.34;4968694;28;98456;-71
2022/07/05 07:32:08;;;;;;;2.33;0.77;;;;;;;25.67;31.23;101691.28;4970350;28;98135;-70
2022/07/05 07:34:36;;;;;;;3.55;1.15;;;;;;;25.97;30.98;101697.81;4966817;28;97384;-71
2022/07/05 07:37:04;;;;;;;3.00;0.68;;;;;;;26.05;30.80;101692.63;4969467;28;96789;-70
2022/07/05 07:39:32;;;;;;;2.25;1.10;;;;;;;26.52;30.12;101689.38;4969318;28;101602;-69
2022/07/05 07:41:59;;;;;;;1.02;0.80;;;;;;;26.08;30.94;101689.63;4969293;28;99512;-69
2022/07/05 07:44:26;;;;;;;0.90;0.75;;;;;;;26.48;30.70;101684.34;4968696;28;97124;-70
2022/07/05 07:46:52;;;;;;;1.55;0.90;;;;;;;27.09;29.95;101687.09;4969075;28;97005;-71
2022/07/05 07:49:19;;;;;;;2.30;0.70;;;;;;;26.63;30.66;101693.00;4968709;28;98249;-69
2022/07/05 07:51:45;;;;;;;2.38;0.75;;;;;;;27.20;29.70;101692.38;4968241;28;97792;-70
2022/07/05 07:54:12;;;;;;;5.38;0.98;;;;;;;27.36;29.29;101687.28;4967449;28;96882;-71
2022/07/05 07:56:40;;;;;;;2.75;0.68;;;;;;;27.54;29.37;101688.34;4968211;28;97301;-69
2022/07/05 07:59:13;;;;;;;3.60;0.70;;;;;;;27.55;29.44;101684.63;4969988;28;99271;-70
2022/07/05 08:01:39;;;;;;;3.58;0.77;;;;;;;27.99;28.31;101677.75;4968933;28;98162;-71
2022/07/05 08:04:06;;;;;;;1.85;1.02;;;;;;;28.13;28.19;101684.59;4956016;28;101302;-70
2022/07/05 08:06:32;;;;;;;5.78;1.00;;;;;;;28.23;28.10;101684.59;4976951;28;97309;-70
2022/07/05 08:08:59;;;;;;;2.55;1.00;;;;;;;28.30;28.03;101680.31;4972365;28;99201;-69
2022/07/05 08:11:25;;;;;;;2.55;1.20;;;;;;;28.15;27.64;101682.63;4972509;28;98793;-70
2022/07/05 08:13:53;;;;;;;0.77;0.77;;;;;;;28.06;28.13;101692.47;4972459;28;97103;-71
2022/07/05 08:16:20;;;;;;;1.33;0.77;;;;;;;28.36;27.92;101677.00;4976033;28;98326;-71
2022/07/05 08:21:31;;;;;;;4.50;1.00;;;;;;;28.30;28.01;101680.31;4973165;28;97645;-73
2022/07/05 08:23:58;;;;;;;6.15;0.80;;;;;;;27.41;29.49;101681.44;4976505;28;96845;-71
2022/07/05 08:26:24;;;;;;;5.57;0.90;;;;;;;27.96;28.67;101678.03;4972416;28;96990;-71
2022/07/05 08:28:52;;;;;;;3.65;1.20;;;;;;;28.22;28.20;101685.63;4975673;28;99385;-71
2022/07/05 08:31:19;;;;;;;11.95;1.92;;;;;;;27.78;28.60;101679.75;4974860;28;99079;-71
2022/07/05 08:33:45;;;;;;;2.08;0.90;;;;;;;27.51;29.18;101679.56;4976367;28;96973;-70
2022/07/05 08:36:11;;;;;;;3.03;1.15;;;;;;;27.67;29.17;101677.19;4972110;28;97619;-69
2022/07/05 08:38:38;;;;;;;2.78;1.00;;;;;;;27.98;29.17;101680.59;4972164;28;99740;-70
2022/07/05 08:41:08;;;;;;;1.58;1.02;;;;;;;27.86;29.11;101679.91;4972580;28;97764;-71
2022/07/05 08:43:37;;;;;;;4.35;1.20;;;;;;;28.26;28.84;101673.44;4971278;28;98738;-71
2022/07/05 08:46:08;;;;;;;1.75;1.20;;;;;;;28.41;28.08;101678.28;4969727;28;98675;-70
2022/07/05 08:48:41;;;;;;;6.50;1.33;;;;;;;28.54;27.99;101675.25;4967465;28;97829;-70
2022/07/05 08:51:10;;;;;;;4.90;1.17;;;;;;;28.37;27.82;101674.13;4972429;28;99301;-70
2022/07/05 08:53:37;;;;;;;2.25;1.17;;;;;;;28.26;28.21;101674.31;4975451;28;96850;-70
2022/07/05 08:56:05;;;;;;;5.65;1.10;;;;;;;28.72;27.97;101675.31;4972794;28;97760;-69
2022/07/05 08:58:31;;;;;;;1.30;1.00;;;;;;;28.93;27.69;101676.81;4974658;28;97770;-70
2022/07/05 09:00:58;;;;;;;6.50;1.45;;;;;;;28.19;28.73;101672.31;4975391;28;99040;-70
2022/07/05 09:03:32;;;;;;;6.38;1.00;;;;;;;27.38;29.05;101669.84;4980319;28;96953;-70
2022/07/05 09:06:01;;;;;;;2.83;0.70;;;;;;;27.38;29.40;101671.69;4973418;28;97285;-70
2022/07/05 09:08:32;;;;;;;6.50;0.80;;;;;;;27.74;28.73;101679.22;4978818;28;99163;-71
2022/07/05 09:10:58;;;;;;;4.38;1.60;;;;;;;28.22;28.08;101666.63;4973954;28;99486;-70
2022/07/05 09:13:25;;;;;;;6.18;1.20;;;;;;;28.51;28.08;101661.94;4977338;28;96872;-69
2022/07/05 09:15:51;;;;;;;4.72;0.90;;;;;;;28.60;27.63;101666.50;4972135;28;97454;-70
2022/07/05 09:18:40;;;;;;;2.35;0.98;;;;;;;28.43;27.77;101669.97;4975480;28;99038;-70
2022/07/05 09:21:13;;;;;;;2.92;1.23;;;;;;;28.44;28.46;101671.69;4972530;28;99075;-70
2022/07/05 09:23:40;;;;;;;2.58;1.25;;;;;;;28.27;28.62;101664.31;4973939;28;96729;-71
2022/07/05 09:26:07;;;;;;;3.90;0.95;;;;;;;27.92;28.54;101675.75;4976563;28;97847;-70
2022/07/05 09:28:33;;;;;;;4.00;0.82;;;;;;;28.30;28.22;101661.28;4976183;28;99077;-70
2022/07/05 09:31:00;;;;;;;4.00;1.02;;;;;;;28.68;27.62;101666.59;4974363;28;99787;-69
2022/07/05 09:33:26;;;;;;;5.70;0.90;;;;;;;28.25;28.56;101661.72;4975847;28;96852;-71
2022/07/05 09:35:57;;;;;;;5.88;1.55;;;;;;;28.64;28.31;101657.00;4972051;28;99546;-69
2022/07/05 09:38:24;;;;;;;4.57;1.30;;;;;;;28.66;28.08;101663.16;4972334;28;99172;-69
2022/07/05 09:40:53;;;;;;;3.97;1.20;;;;;;;28.55;28.11;101656.03;4975366;28;102267;-70
2022/07/05 09:43:22;;;;;;;4.80;1.40;;;;;;;28.77;27.89;101649.41;4975444;28;96805;-70
2022/07/05 09:45:56;;;;;;;2.13;0.75;;;;;;;28.48;28.61;101654.94;4977704;28;96908;-71
2022/07/05 09:48:23;;;;;;;2.83;0.95;;;;;;;28.49;28.64;101658.50;4971865;28;99967;-69
2022/07/05 09:50:50;;;;;;;1.90;1.08;;;;;;;28.46;28.25;101658.81;4977758;28;99158;-70
2022/07/05 09:53:18;;;;;;;1.63;1.10;;;;;;;28.65;28.33;101653.28;4974106;28;96889;-71
2022/07/05 09:56:01;;;;;;;3.83;1.38;;;;;;;29.06;27.69;101660.13;4971446;28;97547;-71
2022/07/05 09:58:27;;;;;;;5.05;1.10;;;;;;;28.45;28.43;101659.81;4971890;28;99058;-71
2022/07/05 10:00:54;;;;;;;2.92;1.23;;;;;;;28.31;28.52;101657.56;4969355;28;99920;-71
2022/07/05 10:03:20;;;;;;;3.42;1.17;;;;;;;27.81;28.98;101663.19;4971907;28;96798;-70
2022/07/05 10:05:46;;;;;;;2.00;0.70;;;;;;;27.92;29.21;101654.88;4973417;28;97323;-71
2022/07/05 10:08:14;;;;;;;6.25;1.20;;;;;;;27.80;29.54;101653.34;4972879;28;99471;-71
2022/07/05 10:10:43;;;;;;;5.18;1.13;;;;;;;28.32;29.05;101659.28;4974639;28;99415;-71
2022/07/05 10:13:10;;;;;;;3.97;1.10;;;;;;;27.93;29.13;101653.88;4976175;28;96868;-72
2022/07/05 10:15:37;;;;;;;3.55;1.20;;;;;;;27.97;28.99;101657.16;4971882;28;97278;-71
2022/07/05 10:18:07;;;;;;;7.22;1.98;;;;;;;27.79;29.02;101650.75;4970147;28;98961;-71
2022/07/05 10:20:40;;;;;;;4.95;1.15;;;;;;;28.47;28.21;101657.81;4974040;28;98787;-70
2022/07/05 10:23:08;;;;;;;5.72;2.10;;;;;;;28.19;28.41;101656.03;4973031;28;96751;-69
2022/07/05 10:25:36;;;;;;;4.35;1.92;;;;;;;28.08;27.89;101652.44;4972719;28;97253;-70
2022/07/05 10:28:04;;;;;;;5.75;1.30;;;;;;;28.28;28.09;101657.88;4973347;28;98986;-70
2022/07/05 10:30:32;;;;;;;5.45;1.10;;;;;;;28.34;28.08;101654.56;4963241;28;99228;-70
2022/07/05 10:33:01;;;;;;;4.60;1.30;;;;;;;28.31;28.51;101661.13;4956826;28;98329;-70
2022/07/05 10:35:28;;;;;;;3.88;1.33;;;;;;;28.67;27.76;101662.16;4958462;28;97620;-72
2022/07/05 10:37:54;;;;;;;4.95;1.02;;;;;;;28.85;27.45;101656.81;4963328;28;98950;-70
2022/07/05 10:40:21;;;;;;;3.80;1.13;;;;;;;29.52;26.61;101658.28;4964448;28;99224;-70
2022/07/05 10:42:52;;;;;;;3.72;1.10;;;;;;;29.67;26.76;101656.69;4974266;28;99038;-69
2022/07/05 10:45:28;;;;;;;5.00;1.17;;;;;;;29.22;26.73;101651.28;4979843;28;97359;-70
2022/07/05 10:48:09;;;;;;;;;;;;;;;29.58;26.57;101650.34;4973260;28;100037;-70
2022/07/05 10:50:43;;;;;;;4.53;1.35;;;;;;;29.97;25.60;101653.59;4967280;28;98024;-72
2022/07/05 10:53:10;;;;;;;4.72;1.20;;;;;;;29.26;25.92;101663.59;4974039;28;96868;-70
2022/07/05 10:55:48;;;;;;;3.90;1.17;;;;;;;28.37;27.49;101662.41;4976083;28;96930;-71
2022/07/05 10:58:22;;;;;;;3.55;1.27;;;;;;;28.70;27.28;101655.56;4976407;28;100651;-72
2022/07/05 11:01:29;;;;;;;4.97;1.20;;;;;;;28.49;27.34;101650.34;4972060;28;98334;-71
2022/07/05 11:04:07;;;;;;;4.77;1.33;;;;;;;27.61;28.52;101661.47;4971453;28;97032;-70
2022/07/05 11:06:42;;;;;;;3.65;1.20;;;;;;;28.14;28.08;101659.19;4971057;28;97413;-70
2022/07/05 11:09:17;;;;;;;6.47;1.20;;;;;;;28.43;27.53;101651.78;4974436;28;98538;-70
2022/07/05 11:11:45;;;;;;;4.78;0.98;;;;;;;28.52;27.27;101642.75;4969163;28;98871;-70
2022/07/05 11:14:37;;;;;;;6.35;1.25;;;;;;;28.85;27.25;101646.78;4977937;28;97847;-71
2022/07/05 11:17:29;;;;;;;3.97;1.00;;;;;;;28.35;27.70;101656.28;4970725;28;97132;-70
2022/07/05 11:20:19;;;;;;;4.05;1.10;;;;;;;27.95;28.46;101660.03;4968048;28;98892;-71
2022/07/05 11:23:02;;;;;;;9.80;2.63;;;;;;;28.36;27.93;101655.25;4971424;28;98888;-70
2022/07/05 11:25:31;;;;;;;8.48;1.10;;;;;;;28.26;28.05;101655.28;4970785;28;96963;-70
2022/07/05 11:28:24;;;;;;;7.05;1.45;;;;;;;28.46;27.92;101656.09;4974827;28;97970;-71
2022/07/05 11:30:55;;;;;;;5.07;1.35;;;;;;;28.41;28.11;101661.13;4969696;28;102006;-70
2022/07/05 11:33:38;;;;;;;2.22;0.80;;;;;;;28.54;27.58;101653.50;4977656;28;99304;-70
2022/07/05 11:36:06;;;;;;;4.78;0.90;;;;;;;28.12;28.27;101642.13;4969485;28;97471;-69